createdAt,value
2022-12-28T00:01:42.798Z,99670.83
2022-12-28T00:04:16.740Z,99671.75
2022-12-28T00:06:50.904Z,99667.44
2022-12-28T00:09:23.810Z,99669.62
2022-12-28T00:11:56.711Z,99670.92
2022-12-28T00:14:29.511Z,99669.82
2022-12-28T00:17:02.172Z,99669.53
2022-12-28T00:19:35.757Z,99670.02
2022-12-28T00:22:08.632Z,99668.62
2022-12-28T00:24:42.082Z,99669.60
2022-12-28T00:27:14.737Z,99662.63
2022-12-28T00:29:47.519Z,99663.62
2022-12-28T00:32:20.620Z,99663.72
2022-12-28T00:34:53.525Z,99657.32
2022-12-28T00:37:26.800Z,99658.30
2022-12-28T00:39:59.571Z,99660.42
2022-12-28T00:42:32.960Z,99663.91
2022-12-28T00:45:06.903Z,99666.50
2022-12-28T00:47:39.834Z,99668.69
2022-12-28T00:50:12.713Z,99666.91
2022-12-28T00:52:45.991Z,99663.12
2022-12-28T00:55:18.869Z,99656.63
2022-12-28T00:57:51.969Z,99665.71
2022-12-28T01:00:25.041Z,99657.00
2022-12-28T01:02:58.227Z,99670.49
2022-12-28T01:05:31.416Z,99658.62
2022-12-28T01:08:04.261Z,99664.50
2022-12-28T01:10:39.176Z,99659.63
2022-12-28T01:13:12.034Z,99671.12
2022-12-28T01:15:45.808Z,99661.94
2022-12-28T01:18:18.627Z,99672.53
2022-12-28T01:20:51.635Z,99680.22
2022-12-28T01:23:24.644Z,99674.52
2022-12-28T01:25:59.446Z,99680.52
2022-12-28T01:28:32.978Z,99668.44
2022-12-28T01:31:15.516Z,99675.95
2022-12-28T01:33:49.328Z,99675.95
2022-12-28T01:36:25.645Z,99673.95
2022-12-28T01:39:01.742Z,99666.28
2022-12-28T01:41:40.447Z,99660.69
2022-12-28T01:44:17.938Z,99668.19
2022-12-28T01:47:08.255Z,99675.05
2022-12-28T01:50:04.197Z,99673.28
2022-12-28T01:52:45.540Z,99685.22
2022-12-28T01:55:28.470Z,99685.33
2022-12-28T01:58:10.759Z,99671.38
2022-12-28T02:00:47.194Z,99673.46
2022-12-28T02:03:29.124Z,99671.17
2022-12-28T02:06:05.540Z,99677.97
2022-12-28T02:09:03.990Z,99676.47
2022-12-28T02:11:37.581Z,99680.94
2022-12-28T02:14:12.793Z,99691.52
2022-12-28T02:16:44.881Z,99689.41
2022-12-28T02:19:22.501Z,99695.00
2022-12-28T02:22:28.384Z,99705.36
2022-12-28T02:25:17.991Z,99700.55
2022-12-28T02:28:12.720Z,99703.55
2022-12-28T02:31:10.832Z,99709.72
2022-12-28T02:33:52.991Z,99701.33
2022-12-28T02:36:29.801Z,99707.50
2022-12-28T02:39:10.067Z,99712.09
2022-12-28T02:41:43.512Z,99717.95
2022-12-28T02:44:18.569Z,99713.56
2022-12-28T02:47:09.497Z,99727.91
2022-12-28T02:50:00.929Z,99721.94
2022-12-28T02:52:56.823Z,99724.20
2022-12-28T02:56:08.186Z,99729.18
2022-12-28T02:59:06.466Z,99750.88
2022-12-28T03:02:10.504Z,99736.88
2022-12-28T03:05:06.501Z,99743.55
2022-12-28T03:08:08.154Z,99740.16
2022-12-28T03:10:48.599Z,99749.00
2022-12-28T03:13:43.683Z,99762.05
2022-12-28T03:16:41.186Z,99762.52
2022-12-28T03:19:32.094Z,99768.00
2022-12-28T03:22:23.988Z,99782.95
2022-12-28T03:25:15.734Z,99781.95
2022-12-28T03:28:07.314Z,99777.20
2022-12-28T03:30:59.846Z,99785.25
2022-12-28T03:33:51.041Z,99791.80
2022-12-28T03:36:31.210Z,99796.09
2022-12-28T03:39:34.102Z,99796.72
2022-12-28T03:42:53.529Z,99793.07
2022-12-28T03:45:57.227Z,99805.13
2022-12-28T03:48:30.893Z,99812.16
2022-12-28T03:51:04.265Z,99826.20
2022-12-28T03:53:46.564Z,99826.66
2022-12-28T03:56:25.463Z,99845.95
2022-12-28T03:59:00.045Z,99828.09
2022-12-28T04:01:34.667Z,99844.39
2022-12-28T04:04:08.415Z,99845.59
2022-12-28T04:06:41.706Z,99856.85
2022-12-28T04:09:16.369Z,99859.84
2022-12-28T04:11:49.337Z,99866.05
2022-12-28T04:14:23.919Z,99867.09
2022-12-28T04:16:57.471Z,99860.64
2022-12-28T04:19:31.380Z,99865.28
2022-12-28T04:22:04.461Z,99882.86
2022-12-28T04:24:38.418Z,99867.86
2022-12-28T04:27:11.694Z,99869.83
2022-12-28T04:29:45.333Z,99875.48
2022-12-28T04:32:20.081Z,99871.40
2022-12-28T04:34:52.988Z,99879.78
2022-12-28T04:37:26.193Z,99878.89
2022-12-28T04:39:59.711Z,99879.26
2022-12-28T04:42:33.005Z,99880.19
2022-12-28T04:45:07.274Z,99888.30
2022-12-28T04:47:40.636Z,99887.53
2022-12-28T04:50:13.367Z,99894.87
2022-12-28T04:52:46.378Z,99892.41
2022-12-28T04:55:32.452Z,99893.70
2022-12-28T04:57:53.924Z,99896.05
2022-12-28T05:00:27.023Z,99905.28
2022-12-28T05:03:02.817Z,99908.39
2022-12-28T05:05:38.015Z,99912.27
2022-12-28T05:08:10.776Z,99924.53
2022-12-28T05:10:44.442Z,99930.20
2022-12-28T05:13:17.411Z,99944.03
2022-12-28T05:15:50.866Z,99936.16
2022-12-28T05:18:23.968Z,99942.25
2022-12-28T05:21:15.667Z,99942.25
2022-12-28T05:23:49.890Z,99949.59
2022-12-28T05:26:26.631Z,99946.77
2022-12-28T05:29:00.130Z,99958.66
2022-12-28T05:31:33.290Z,99954.41
2022-12-28T05:34:06.535Z,99961.77
2022-12-28T05:36:40.044Z,99962.94
2022-12-28T05:39:12.897Z,99972.86
2022-12-28T05:41:45.741Z,99976.86
2022-12-28T05:44:26.439Z,99975.97
2022-12-28T05:47:00.377Z,99984.99
2022-12-28T05:49:33.465Z,99979.18
2022-12-28T05:52:06.667Z,99984.73
2022-12-28T05:54:40.160Z,99986.92
2022-12-28T05:57:13.675Z,99988.73
2022-12-28T05:59:46.763Z,99987.72
2022-12-28T06:02:24.577Z,99998.41
2022-12-28T06:04:54.559Z,99985.37
2022-12-28T06:07:27.620Z,99997.66
2022-12-28T06:10:01.168Z,99990.28
2022-12-28T06:12:34.451Z,99997.00
2022-12-28T06:15:08.807Z,100005.51
2022-12-28T06:17:42.005Z,100004.22
2022-12-28T06:20:14.800Z,100015.72
2022-12-28T06:22:48.301Z,100009.27
2022-12-28T06:25:21.655Z,100016.22
2022-12-28T06:27:55.020Z,100021.50
2022-12-28T06:30:27.759Z,100017.63
2022-12-28T06:33:00.643Z,100026.92
2022-12-28T06:35:33.895Z,100026.65
2022-12-28T06:38:07.097Z,100033.87
2022-12-28T06:41:11.772Z,100035.43
2022-12-28T06:43:14.394Z,100042.53
2022-12-28T06:45:57.096Z,100040.72
2022-12-28T06:48:31.083Z,100041.48
2022-12-28T06:51:11.576Z,100034.66
2022-12-28T06:53:45.264Z,100044.31
2022-12-28T06:56:20.907Z,100053.11
2022-12-28T06:59:02.005Z,100052.31
2022-12-28T07:01:36.522Z,100057.22
2022-12-28T07:04:11.295Z,100068.98
2022-12-28T07:06:45.724Z,100060.70
2022-12-28T07:09:18.949Z,100080.86
2022-12-28T07:11:53.243Z,100078.39
2022-12-28T07:14:26.080Z,100075.95
2022-12-28T07:16:59.638Z,100077.10
2022-12-28T07:19:32.717Z,100074.14
2022-12-28T07:22:05.508Z,100085.09
2022-12-28T07:24:39.503Z,100099.27
2022-12-28T07:27:12.452Z,100088.30
2022-12-28T07:29:45.301Z,100082.97
2022-12-28T07:32:18.649Z,100104.52
2022-12-28T07:34:51.416Z,100102.97
2022-12-28T07:37:25.098Z,100099.63
2022-12-28T07:39:57.759Z,100100.16
2022-12-28T07:42:32.158Z,100108.66
2022-12-28T07:45:05.635Z,100102.38
2022-12-28T07:47:38.565Z,100109.86
2022-12-28T07:50:12.038Z,100111.02
2022-12-28T07:52:45.135Z,100127.28
2022-12-28T07:55:18.095Z,100120.96
2022-12-28T07:57:53.514Z,100121.48
2022-12-28T08:00:26.549Z,100122.52
2022-12-28T08:02:59.531Z,100114.27
2022-12-28T08:05:32.443Z,100112.45
2022-12-28T08:08:05.250Z,100109.51
2022-12-28T08:10:38.188Z,100114.01
2022-12-28T08:13:11.818Z,100122.91
2022-12-28T08:15:44.958Z,100123.67
2022-12-28T08:18:17.817Z,100111.83
2022-12-28T08:20:50.779Z,100107.69
2022-12-28T08:23:24.091Z,100115.30
2022-12-28T08:25:57.219Z,100105.73
2022-12-28T08:28:30.324Z,100112.45
2022-12-28T08:31:23.616Z,100114.16
2022-12-28T08:33:59.437Z,100112.09
2022-12-28T08:36:33.245Z,100134.41
2022-12-28T08:39:06.674Z,100131.29
2022-12-28T08:41:39.731Z,100167.69
2022-12-28T08:44:12.567Z,100134.00
2022-12-28T08:46:45.444Z,100142.02
2022-12-28T08:49:19.022Z,100145.36
2022-12-28T08:51:52.167Z,100141.88
2022-12-28T08:54:24.970Z,100152.08
2022-12-28T08:56:57.858Z,100154.16
2022-12-28T08:59:30.741Z,100153.11
2022-12-28T09:02:03.733Z,100150.27
2022-12-28T09:04:36.900Z,100156.36
2022-12-28T09:07:09.810Z,100163.44
2022-12-28T09:09:42.723Z,100148.48
2022-12-28T09:12:16.032Z,100149.11
2022-12-28T09:14:48.975Z,100162.81
2022-12-28T09:17:22.824Z,100158.53
2022-12-28T09:19:55.993Z,100157.75
2022-12-28T09:22:29.281Z,100174.55
2022-12-28T09:25:02.071Z,100169.64
2022-12-28T09:27:35.461Z,100180.86
2022-12-28T09:30:10.058Z,100185.63
2022-12-28T09:32:43.279Z,100179.05
2022-12-28T09:35:16.401Z,100182.02
2022-12-28T09:37:49.207Z,100192.23
2022-12-28T09:40:22.134Z,100199.19
2022-12-28T09:42:55.947Z,100182.28
2022-12-28T09:45:29.922Z,100187.32
2022-12-28T09:48:08.074Z,100186.42
2022-12-28T09:50:41.334Z,100220.12
2022-12-28T09:53:32.806Z,100213.14
2022-12-28T09:56:27.265Z,100200.50
2022-12-28T09:59:01.524Z,100198.41
2022-12-28T10:01:40.731Z,100194.17
2022-12-28T10:04:14.923Z,100199.34
2022-12-28T10:06:47.766Z,100211.84
2022-12-28T10:09:31.333Z,100209.13
2022-12-28T10:12:19.799Z,100209.39
2022-12-28T10:14:54.476Z,100206.03
2022-12-28T10:17:30.787Z,100216.25
2022-12-28T10:20:04.012Z,100227.11
2022-12-28T10:22:48.014Z,100220.50
2022-12-28T10:25:23.491Z,100226.06
2022-12-28T10:27:56.350Z,100235.50
2022-12-28T10:30:30.008Z,100234.84
2022-12-28T10:33:03.788Z,100235.23
2022-12-28T10:35:41.555Z,100234.05
2022-12-28T10:38:35.225Z,100244.52
2022-12-28T10:41:11.851Z,100238.98
2022-12-28T10:44:08.599Z,100245.94
2022-12-28T10:46:26.288Z,100239.36
2022-12-28T10:49:01.423Z,100247.88
2022-12-28T10:51:34.359Z,100256.92
2022-12-28T10:54:12.013Z,100267.52
2022-12-28T10:56:51.172Z,100255.62
2022-12-28T10:59:30.325Z,100258.08
2022-12-28T11:02:33.011Z,100263.50
2022-12-28T11:05:07.810Z,100276.28
2022-12-28T11:07:42.360Z,100270.61
2022-12-28T11:10:31.042Z,100268.69
2022-12-28T11:13:04.007Z,100277.08
2022-12-28T11:15:36.872Z,100275.52
2022-12-28T11:18:16.487Z,100277.59
2022-12-28T11:20:54.627Z,100272.95
2022-12-28T11:23:30.672Z,100280.93
2022-12-28T11:26:04.124Z,100284.57
2022-12-28T11:28:37.258Z,100284.70
2022-12-28T11:31:12.426Z,100284.83
2022-12-28T11:33:48.150Z,100298.64
2022-12-28T11:36:28.665Z,100308.58
2022-12-28T11:39:01.585Z,100306.27
2022-12-28T11:41:51.255Z,100309.64
2022-12-28T11:44:38.227Z,100315.06
2022-12-28T11:47:28.439Z,100310.92
2022-12-28T11:50:37.975Z,100326.42
2022-12-28T11:53:36.736Z,100322.15
2022-12-28T11:56:12.930Z,100332.23
2022-12-28T11:58:59.514Z,100322.42
2022-12-28T12:01:39.152Z,100343.89
2022-12-28T12:04:22.276Z,100346.20
2022-12-28T12:07:03.036Z,100337.81
2022-12-28T12:09:41.801Z,100345.66
2022-12-28T12:12:22.269Z,100351.23
2022-12-28T12:15:07.460Z,100348.91
2022-12-28T12:17:53.998Z,100351.90
2022-12-28T12:20:53.995Z,100356.41
2022-12-28T12:23:54.040Z,100367.28
2022-12-28T12:26:43.579Z,100355.64
2022-12-28T12:29:42.647Z,100367.52
2022-12-28T12:32:38.100Z,100369.33
2022-12-28T12:35:19.346Z,100371.12
2022-12-28T12:38:16.960Z,100375.91
2022-12-28T12:41:17.305Z,100382.63
2022-12-28T12:44:32.807Z,100395.82
2022-12-28T12:47:10.693Z,100395.30
2022-12-28T12:50:33.450Z,100399.30
2022-12-28T12:53:29.043Z,100400.46
2022-12-28T12:56:35.540Z,100401.48
2022-12-28T12:59:50.862Z,100409.38
2022-12-28T13:02:40.441Z,100396.95
2022-12-28T13:05:21.701Z,100406.89
2022-12-28T13:07:56.266Z,100416.55
2022-12-28T13:10:37.576Z,100421.22
2022-12-28T13:13:30.126Z,100428.97
2022-12-28T13:16:12.567Z,100430.63
2022-12-28T13:18:58.059Z,100436.58
2022-12-28T13:21:49.198Z,100437.48
2022-12-28T13:24:35.406Z,100438.64
2022-12-28T13:27:18.843Z,100444.95
2022-12-28T13:29:55.854Z,100457.73
2022-12-28T13:32:38.556Z,100445.08
2022-12-28T13:35:29.120Z,100442.36
2022-12-28T13:38:19.246Z,100455.78
2022-12-28T13:40:54.318Z,100455.78
2022-12-28T13:44:00.598Z,100463.25
2022-12-28T13:46:37.646Z,100470.37
2022-12-28T13:49:11.586Z,100479.01
2022-12-28T13:51:49.743Z,100487.52
2022-12-28T13:54:20.271Z,100477.72
2022-12-28T13:57:14.406Z,100481.59
2022-12-28T13:59:30.129Z,100490.49
2022-12-28T14:02:04.885Z,100497.48
2022-12-28T14:04:54.174Z,100494.23
2022-12-28T14:07:18.731Z,100495.02
2022-12-28T14:09:52.356Z,100499.66
2022-12-28T14:12:27.421Z,100503.78
2022-12-28T14:15:01.221Z,100508.95
2022-12-28T14:17:33.827Z,100504.55
2022-12-28T14:20:07.724Z,100506.73
2022-12-28T14:22:42.189Z,100513.33
2022-12-28T14:25:18.058Z,100516.58
2022-12-28T14:28:05.782Z,100513.46
2022-12-28T14:30:42.514Z,100518.13
2022-12-28T14:33:24.911Z,100515.27
2022-12-28T14:36:02.420Z,100527.65
2022-12-28T14:38:42.895Z,100529.95
2022-12-28T14:41:32.062Z,100531.36
2022-12-28T14:44:07.922Z,100529.93
2022-12-28T14:46:43.138Z,100538.31
2022-12-28T14:49:34.800Z,100531.50
2022-12-28T14:52:16.729Z,100543.12
2022-12-28T14:54:54.892Z,100546.45
2022-12-28T14:57:43.884Z,100553.95
2022-12-28T15:00:32.712Z,100550.21
2022-12-28T15:03:20.528Z,100551.28
2022-12-28T15:05:55.418Z,100549.85
2022-12-28T15:08:29.364Z,100556.53
2022-12-28T15:13:37.973Z,100559.48
2022-12-28T15:16:14.494Z,100558.67
2022-12-28T15:18:48.180Z,100569.25
2022-12-28T15:21:24.574Z,100573.88
2022-12-28T15:23:58.621Z,100575.56
2022-12-28T15:26:31.767Z,100576.99
2022-12-28T15:29:07.692Z,100581.77
2022-12-28T15:31:40.946Z,100584.73
2022-12-28T15:34:13.756Z,100586.92
2022-12-28T15:36:47.193Z,100594.31
2022-12-28T15:39:20.445Z,100598.41
2022-12-28T15:41:53.401Z,100601.38
2022-12-28T15:44:26.237Z,100604.36
2022-12-28T15:46:59.221Z,100602.13
2022-12-28T15:49:32.289Z,100617.77
2022-12-28T15:52:05.928Z,100622.78
2022-12-28T15:54:42.515Z,100625.23
2022-12-28T15:57:15.071Z,100632.08
2022-12-28T15:59:48.415Z,100630.39
2022-12-28T16:02:21.462Z,100638.67
2022-12-28T16:04:56.458Z,100645.88
2022-12-28T16:07:30.522Z,100644.08
2022-12-28T16:10:07.109Z,100647.17
2022-12-28T16:12:40.664Z,100655.98
2022-12-28T16:15:14.012Z,100652.25
2022-12-28T16:17:56.699Z,100653.30
2022-12-28T16:20:22.584Z,100658.06
2022-12-28T16:22:56.036Z,100665.41
2022-12-28T16:25:29.053Z,100673.41
2022-12-28T16:28:02.159Z,100668.64
2022-12-28T16:30:39.769Z,100675.74
2022-12-28T16:33:13.244Z,100676.42
2022-12-28T16:35:46.520Z,100680.91
2022-12-28T16:38:22.046Z,100686.46
2022-12-28T16:40:57.219Z,100688.91
2022-12-28T16:43:30.195Z,100689.44
2022-12-28T16:46:06.864Z,100697.58
2022-12-28T16:48:40.343Z,100688.55
2022-12-28T16:51:14.447Z,100701.95
2022-12-28T16:53:47.427Z,100707.12
2022-12-28T16:56:20.593Z,100709.30
2022-12-28T16:58:59.835Z,100711.88
2022-12-28T17:01:32.929Z,100710.70
2022-12-28T17:04:06.294Z,100717.02
2022-12-28T17:06:40.733Z,100719.59
2022-12-28T17:09:15.658Z,100724.40
2022-12-28T17:11:50.462Z,100728.41
2022-12-28T17:14:36.998Z,100726.58
2022-12-28T17:16:58.460Z,100727.44
2022-12-28T17:19:31.614Z,100740.06
2022-12-28T17:22:05.566Z,100737.58
2022-12-28T17:24:38.627Z,100748.91
2022-12-28T17:27:18.642Z,100749.41
2022-12-28T17:29:46.848Z,100751.78
2022-12-28T17:32:20.109Z,100751.09
2022-12-28T17:34:54.959Z,100756.86
2022-12-28T17:37:27.899Z,100768.22
2022-12-28T17:40:00.698Z,100768.22
2022-12-28T17:42:33.986Z,100765.89
2022-12-28T17:45:11.473Z,100785.64
2022-12-28T17:47:42.153Z,100773.13
2022-12-28T17:50:15.171Z,100777.01
2022-12-28T17:52:48.049Z,100777.16
2022-12-28T17:55:21.464Z,100781.77
2022-12-28T17:57:54.458Z,100790.80
2022-12-28T18:00:27.359Z,100782.63
2022-12-28T18:03:00.632Z,100786.34
2022-12-28T18:05:34.887Z,100788.93
2022-12-28T18:08:07.439Z,100792.05
2022-12-28T18:10:40.798Z,100787.64
2022-12-28T18:13:15.588Z,100792.90
2022-12-28T18:15:49.115Z,100802.92
2022-12-28T18:18:22.345Z,100804.46
2022-12-28T18:21:05.273Z,100809.23
2022-12-28T18:23:38.189Z,100813.09
2022-12-28T18:26:15.702Z,100813.64
2022-12-28T18:28:48.895Z,100826.30
2022-12-28T18:31:22.280Z,100822.97
2022-12-28T18:33:56.280Z,100821.14
2022-12-28T18:36:29.151Z,100828.88
2022-12-28T18:39:03.096Z,100835.72
2022-12-28T18:41:37.008Z,100829.87
2022-12-28T18:44:10.596Z,100840.05
2022-12-28T18:46:43.739Z,100842.08
2022-12-28T18:49:16.873Z,100844.01
2022-12-28T18:51:50.208Z,100848.92
2022-12-28T18:54:23.557Z,100854.38
2022-12-28T18:56:56.817Z,100850.66
2022-12-28T18:59:30.246Z,100853.63
2022-12-28T19:02:06.800Z,100860.09
2022-12-28T19:04:38.614Z,100868.82
2022-12-28T19:07:12.071Z,100860.00
2022-12-28T19:09:47.193Z,100861.28
2022-12-28T19:12:20.307Z,100867.53
2022-12-28T19:14:53.194Z,100875.42
2022-12-28T19:17:26.344Z,100870.41
2022-12-28T19:19:59.204Z,100869.72
2022-12-28T19:22:32.771Z,100876.56
2022-12-28T19:25:06.542Z,100871.25
2022-12-28T19:27:39.676Z,100879.50
2022-12-28T19:30:14.031Z,100872.14
2022-12-28T19:32:47.531Z,100874.48
2022-12-28T19:35:21.800Z,100874.64
2022-12-28T19:37:55.752Z,100882.77
2022-12-28T19:40:28.815Z,100888.92
2022-12-28T19:43:01.959Z,100883.84
2022-12-28T19:45:35.307Z,100889.84
2022-12-28T19:48:08.160Z,100889.00
2022-12-28T19:50:42.301Z,100887.05
2022-12-28T19:53:15.581Z,100897.42
2022-12-28T19:55:48.587Z,100902.83
2022-12-28T19:58:23.785Z,100897.66
2022-12-28T20:00:57.202Z,100901.92
2022-12-28T20:03:30.181Z,100910.41
2022-12-28T20:06:18.467Z,100912.99
2022-12-28T20:09:00.668Z,100911.55
2022-12-28T20:11:33.737Z,100913.59
2022-12-28T20:14:07.179Z,100913.08
2022-12-28T20:16:40.199Z,100923.78
2022-12-28T20:19:16.001Z,100920.12
2022-12-28T20:21:49.822Z,100921.50
2022-12-28T20:24:22.711Z,100920.20
2022-12-28T20:27:01.451Z,100912.31
2022-12-28T20:29:31.707Z,100911.77
2022-12-28T20:32:04.729Z,100926.11
2022-12-28T20:34:37.669Z,100920.44
2022-12-28T20:37:10.904Z,100926.94
2022-12-28T20:39:44.161Z,100925.73
2022-12-28T20:42:35.946Z,100929.45
2022-12-28T20:45:10.169Z,100931.20
2022-12-28T20:47:43.090Z,100937.34
2022-12-28T20:50:15.905Z,100934.45
2022-12-28T20:52:48.704Z,100935.95
2022-12-28T20:55:22.162Z,100946.34
2022-12-28T20:57:55.269Z,100945.95
2022-12-28T21:00:28.144Z,100938.84
2022-12-28T21:03:00.971Z,100942.59
2022-12-28T21:05:34.280Z,100943.30
2022-12-28T21:08:07.198Z,100949.78
2022-12-28T21:10:40.161Z,100948.18
2022-12-28T21:13:13.474Z,100947.87
2022-12-28T21:15:46.942Z,100954.61
2022-12-28T21:18:19.759Z,100962.27
2022-12-28T21:20:59.857Z,100960.43
2022-12-28T21:23:33.900Z,100967.92
2022-12-28T21:26:09.290Z,100970.08
2022-12-28T21:28:42.977Z,100963.95
2022-12-28T21:31:16.658Z,100968.87
2022-12-28T21:33:51.326Z,100971.22
2022-12-28T21:36:24.162Z,100972.66
2022-12-28T21:38:57.156Z,100972.50
2022-12-28T21:41:47.540Z,100979.56
2022-12-28T21:44:25.234Z,100969.61
2022-12-28T21:46:58.156Z,100980.89
2022-12-28T21:49:30.989Z,100980.73
2022-12-28T21:52:03.888Z,100990.38
2022-12-28T21:54:37.598Z,100984.91
2022-12-28T21:57:12.698Z,100988.22
2022-12-28T21:59:45.456Z,100988.77
2022-12-28T22:02:38.250Z,100984.98
2022-12-28T22:05:30.292Z,100988.88
2022-12-28T22:08:04.736Z,100988.56
2022-12-28T22:10:56.594Z,100991.59
2022-12-28T22:13:30.015Z,100993.69
2022-12-28T22:16:03.126Z,100993.37
2022-12-28T22:19:00.839Z,100998.30
2022-12-28T22:21:11.308Z,100994.75
2022-12-28T22:23:44.725Z,101004.24
2022-12-28T22:26:17.722Z,101001.09
2022-12-28T22:28:51.076Z,101003.59
2022-12-28T22:31:23.904Z,101007.84
2022-12-28T22:34:00.521Z,101004.56
2022-12-28T22:36:32.002Z,101006.82
2022-12-28T22:39:04.946Z,101012.72
2022-12-28T22:41:38.176Z,101016.29
2022-12-28T22:44:12.268Z,101015.97
2022-12-28T22:46:44.393Z,101014.36
2022-12-28T22:49:17.114Z,101015.33
2022-12-28T22:51:50.788Z,101021.28
2022-12-28T22:54:24.180Z,101027.23
2022-12-28T22:56:57.238Z,101024.41
2022-12-28T22:59:30.108Z,101023.37
2022-12-28T23:02:03.082Z,101024.17
2022-12-28T23:04:36.049Z,101022.40
2022-12-28T23:07:08.937Z,101022.69
2022-12-28T23:09:41.797Z,101025.34
2022-12-28T23:12:14.986Z,101029.84
2022-12-28T23:15:05.924Z,101030.06
2022-12-28T23:17:38.897Z,101031.75
2022-12-28T23:20:31.234Z,101032.20
2022-12-28T23:23:22.687Z,101030.41
2022-12-28T23:26:13.368Z,101045.13
2022-12-28T23:28:46.133Z,101042.97
2022-12-28T23:31:18.840Z,101046.66
2022-12-28T23:33:52.911Z,101043.19
2022-12-28T23:36:25.826Z,101053.86
2022-12-28T23:38:58.847Z,101057.94
2022-12-28T23:41:50.077Z,101059.58
2022-12-28T23:44:28.024Z,101067.30
2022-12-28T23:47:00.946Z,101074.67
2022-12-28T23:49:34.420Z,101074.95
2022-12-28T23:52:07.410Z,101071.48
2022-12-28T23:54:41.042Z,101081.99
2022-12-28T23:57:14.642Z,101084.39
2022-12-28T23:59:47.477Z,101084.80
